TimeAKST,TemperatureF,Dew PointF,Humidity,Sea Level PressureIn,VisibilityMPH,Wind Direction,Wind SpeedMPH,Gust SpeedMPH,PrecipitationIn,Events,Conditions,WindDirDegrees,DateUTC
12:53 AM,-36.9,-9999,N/A,29.97,10.0,West,3.5,-,N/A,,Clear,270,2012-11-18 09:53:00
1:53 AM,-36.9,-9999,N/A,29.97,6.0,Calm,Calm,-,N/A,,Haze,0,2012-11-18 10:53:00
3:53 AM,-38.0,-9999,N/A,29.98,10.0,Calm,Calm,-,N/A,,Clear,0,2012-11-18 12:53:00
4:53 AM,-38.0,-9999,N/A,29.98,10.0,West,3.5,-,N/A,,Clear,260,2012-11-18 13:53:00
5:53 AM,-38.0,-9999,N/A,29.99,10.0,Calm,Calm,-,N/A,,Clear,0,2012-11-18 14:53:00
6:23 AM,-38.2,-9999,N/A,29.86,4.0,Calm,Calm,-,N/A,,Haze,0,2012-11-18 15:23:00
6:53 AM,-38.9,-9999,N/A,30.00,7.0,Calm,Calm,-,N/A,,Clear,0,2012-11-18 15:53:00
7:53 AM,-38.9,-9999,N/A,30.02,5.0,Calm,Calm,-,N/A,,Haze,0,2012-11-18 16:53:00
8:53 AM,-38.9,-9999,N/A,30.03,10.0,WSW,3.5,-,N/A,,Clear,240,2012-11-18 17:53:00
9:53 AM,-38.0,-9999,N/A,30.04,9.0,Calm,Calm,-,N/A,,Clear,0,2012-11-18 18:53:00
10:23 AM,-38.2,-9999,N/A,29.91,6.0,Calm,Calm,-,N/A,,Haze,0,2012-11-18 19:23:00
10:53 AM,-36.0,-9999,N/A,30.05,5.0,Calm,Calm,-,N/A,,Haze,0,2012-11-18 19:53:00
11:53 AM,-34.1,-9999,N/A,30.06,6.0,Calm,Calm,-,N/A,,Haze,0,2012-11-18 20:53:00
12:53 PM,-29.9,-9999,N/A,30.06,10.0,Calm,Calm,-,N/A,,Overcast,0,2012-11-18 21:53:00
1:53 PM,-27.9,-35.0,69,30.06,10.0,Calm,Calm,-,N/A,,Overcast,0,2012-11-18 22:53:00
2:53 PM,-26.0,-33.0,69,30.07,10.0,Calm,Calm,-,N/A,,Overcast,0,2012-11-18 23:53:00
3:53 PM,-24.0,-32.1,66,30.08,10.0,Variable,3.5,-,N/A,,Overcast,0,2012-11-19 00:53:00
4:53 PM,-24.0,-31.0,70,30.09,10.0,Calm,Calm,-,N/A,,Overcast,0,2012-11-19 01:53:00
5:53 PM,-23.1,-29.9,70,30.11,10.0,Calm,Calm,-,N/A,,Overcast,0,2012-11-19 02:53:00
6:53 PM,-27.9,-35.0,69,30.13,10.0,Calm,Calm,-,N/A,,Clear,0,2012-11-19 03:53:00
7:53 PM,-31.0,-9999,N/A,30.15,10.0,Calm,Calm,-,N/A,,Clear,0,2012-11-19 04:53:00
8:53 PM,-32.1,-9999,N/A,30.17,10.0,Calm,Calm,-,N/A,,Clear,0,2012-11-19 05:53:00
9:53 PM,-33.0,-9999,N/A,30.18,10.0,WSW,3.5,-,N/A,,Clear,240,2012-11-19 06:53:00
10:53 PM,-34.1,-9999,N/A,30.19,10.0,West,3.5,-,N/A,,Clear,280,2012-11-19 07:53:00
11:53 PM,-34.1,-9999,N/A,30.20,10.0,WSW,3.5,-,N/A,,Clear,250,2012-11-19 08:53:00